Time;durP1;ratioP1;P1;durP2;ratioP2;P2;SDS_P1;SDS_P2;PMS_P1;PMS_P2;Temp;Humidity;BMP_temperature;BMP_pressure;BME280_temperature;BME280_humidity;BME280_pressure;Samples;Min_cycle;Max_cycle;Signal;HPM_P1;HPM_P2
2021/08/14 00:01:19;;;;;;;;;;;;;;;17.09;100.00;99253.69;5078142;28;20391;-79
2021/08/14 00:03:46;;;;;;;;;;;;;;;17.08;100.00;99258.56;5094763;28;19977;-79
2021/08/14 00:06:16;;;;;;;;;;;;;;;17.10;100.00;99250.38;5095906;28;19931;-78
2021/08/14 00:08:44;;;;;;;;;;;;;;;17.30;100.00;99259.28;5094456;28;20405;-78
2021/08/14 00:11:12;;;;;;;;;;;;;;;17.35;100.00;99246.59;5094576;28;19935;-78
2021/08/14 00:13:39;;;;;;;;;;;;;;;17.56;100.00;99246.53;5095570;28;19924;-78
2021/08/14 00:16:06;;;;;;;;;;;;;;;17.13;100.00;99254.34;5095609;28;19924;-79
2021/08/14 00:18:34;;;;;;;;;;;;;;;17.39;100.00;99250.84;5095177;28;19931;-79
2021/08/14 00:21:02;;;;;;;;;;;;;;;17.32;100.00;99244.69;5094292;28;19952;-79
2021/08/14 00:23:30;;;;;;;;;;;;;;;17.33;100.00;99244.22;5094312;28;19924;-79
2021/08/14 00:26:00;;;;;;;;;;;;;;;17.16;100.00;99254.19;5094345;28;20291;-78
2021/08/14 00:28:27;;;;;;;;;;;;;;;17.33;100.00;99257.56;5095366;28;19924;-79
2021/08/14 00:30:54;;;;;;;;;;;;;;;17.42;100.00;99254.75;5094209;28;19928;-79
2021/08/14 00:33:21;;;;;;;;;;;;;;;17.45;100.00;99253.84;5094115;28;19928;-79
2021/08/14 00:35:49;;;;;;;;;;;;;;;17.36;100.00;99256.63;5077441;28;19925;-79
2021/08/14 00:38:16;;;;;;;;;;;;;;;17.20;100.00;99249.19;5077463;28;19931;-79
2021/08/14 00:40:44;;;;;;;;;;;;;;;17.36;100.00;99250.97;5093693;28;19934;-78
2021/08/14 00:43:11;;;;;;;;;;;;;;;17.34;100.00;99253.50;5094101;28;19946;-79
2021/08/14 00:45:40;;;;;;;;;;;;;;;17.31;100.00;99255.19;5077195;28;19924;-79
2021/08/14 00:48:11;;;;;;;;;;;;;;;17.45;100.00;99253.84;5095011;28;19924;-79
2021/08/14 00:50:39;;;;;;;;;;;;;;;17.37;100.00;99252.56;5095272;28;19924;-79
2021/08/14 00:53:06;;;;;;;;;;;;;;;17.48;100.00;99252.94;5093934;28;19928;-79
2021/08/14 00:55:33;;;;;;;;;;;;;;;17.49;100.00;99243.22;5093598;28;19924;-79
2021/08/14 00:58:00;;;;;;;;;;;;;;;17.40;100.00;99248.81;5040423;28;20438;-78
2021/08/14 01:00:28;;;;;;;;;;;;;;;17.69;100.00;99247.19;5092136;28;19924;-79
2021/08/14 01:02:55;;;;;;;;;;;;;;;17.73;100.00;99247.06;5093658;28;20378;-79
2021/08/14 01:05:23;;;;;;;;;;;;;;;17.68;100.00;99233.53;5093779;28;19924;-79
2021/08/14 01:07:50;;;;;;;;;;;;;;;17.67;100.00;99237.63;5060058;28;19939;-79
2021/08/14 01:10:19;;;;;;;;;;;;;;;17.48;100.00;99233.94;5093310;28;19928;-79
2021/08/14 01:12:47;;;;;;;;;;;;;;;17.50;100.00;99236.31;5094841;28;19931;-79
2021/08/14 01:15:14;;;;;;;;;;;;;;;17.33;100.00;99229.31;5093205;28;19928;-79
2021/08/14 01:17:50;;;;;;;;;;;;;;;17.58;100.00;99234.78;5061238;28;19924;-79
2021/08/14 01:20:17;;;;;;;;;;;;;;;17.37;100.00;99239.22;5076585;28;19924;-79
2021/08/14 01:22:44;;;;;;;;;;;;;;;17.48;100.00;99235.97;5094326;28;19928;-79
2021/08/14 01:25:12;;;;;;;;;;;;;;;17.66;100.00;99236.06;5093273;28;19924;-79
2021/08/14 01:27:39;;;;;;;;;;;;;;;17.69;100.00;99235.13;5059738;28;19942;-79
2021/08/14 01:30:07;;;;;;;;;;;;;;;17.56;100.00;99237.28;5094615;28;19938;-79
2021/08/14 01:32:34;;;;;;;;;;;;;;;17.61;100.00;99231.81;5076219;28;19966;-79
2021/08/14 01:35:01;;;;;;;;;;;;;;;17.56;100.00;99223.16;5093110;28;20023;-79
2021/08/14 01:37:32;;;;;;;;;;;;;;;17.21;100.00;99225.34;5076002;28;19931;-78
2021/08/14 01:39:59;;;;;;;;;;;;;;;17.35;100.00;99232.47;5093037;28;19981;-79
2021/08/14 01:42:27;;;;;;;;;;;;;;;17.43;100.00;99230.94;5093073;28;20274;-79
2021/08/14 01:44:54;;;;;;;;;;;;;;;17.52;100.00;99231.00;5092948;28;19973;-79
2021/08/14 01:47:21;;;;;;;;;;;;;;;17.32;100.00;99224.91;5094243;28;19931;-79
2021/08/14 01:49:48;;;;;;;;;;;;;;;17.24;100.00;99226.44;5093007;28;19966;-79
2021/08/14 01:52:17;;;;;;;;;;;;;;;17.38;100.00;99231.53;5092613;28;19985;-79
2021/08/14 01:54:45;;;;;;;;;;;;;;;17.46;100.00;99221.56;5092697;28;20463;-79
2021/08/14 01:57:13;;;;;;;;;;;;;;;17.53;100.00;99209.94;5094003;28;20011;-79
2021/08/14 01:59:40;;;;;;;;;;;;;;;17.20;100.00;99215.31;5092734;28;19924;-79
2021/08/14 02:02:07;;;;;;;;;;;;;;;17.17;100.00;99212.63;5094043;28;19969;-79
2021/08/14 02:04:34;;;;;;;;;;;;;;;17.12;100.00;99218.88;5059249;28;20027;-79
2021/08/14 02:07:01;;;;;;;;;;;;;;;17.22;100.00;99218.44;5093687;28;19932;-79
2021/08/14 02:09:29;;;;;;;;;;;;;;;17.09;100.00;99223.41;5076209;28;20303;-79
2021/08/14 02:11:56;;;;;;;;;;;;;;;17.08;100.00;99229.53;5092496;28;19924;-79
2021/08/14 02:14:24;;;;;;;;;;;;;;;17.13;100.00;99214.81;5092465;28;19928;-79
2021/08/14 02:16:51;;;;;;;;;;;;;;;17.33;100.00;99215.97;5093945;28;20398;-79
2021/08/14 02:19:18;;;;;;;;;;;;;;;17.23;100.00;99207.94;5093555;28;19924;-79
2021/08/14 02:21:46;;;;;;;;;;;;;;;17.08;100.00;99206.94;5092559;28;19924;-80
2021/08/14 02:24:13;;;;;;;;;;;;;;;17.21;100.00;99221.72;5092276;28;19924;-78
2021/08/14 02:26:41;;;;;;;;;;;;;;;17.15;100.00;99215.13;5093758;28;19931;-78
2021/08/14 02:29:10;;;;;;;;;;;;;;;17.13;100.00;99212.75;5092368;28;19998;-78
2021/08/14 02:31:37;;;;;;;;;;;;;;;17.34;100.00;99209.06;5075744;28;19955;-79
2021/08/14 02:34:04;;;;;;;;;;;;;;;17.25;100.00;99202.63;5093544;28;19935;-80
2021/08/14 02:36:32;;;;;;;;;;;;;;;17.37;100.00;99202.50;5092389;28;19930;-78
2021/08/14 02:38:59;;;;;;;;;;;;;;;17.30;100.00;99204.81;5092582;28;19928;-80
2021/08/14 02:41:26;;;;;;;;;;;;;;;17.22;100.00;99212.03;5092110;28;19924;-78
2021/08/14 02:43:53;;;;;;;;;;;;;;;17.28;100.00;99210.16;5093685;28;19924;-78
2021/08/14 02:46:20;;;;;;;;;;;;;;;17.50;100.00;99219.34;5093762;28;19946;-78
2021/08/14 02:48:47;;;;;;;;;;;;;;;17.18;100.00;99206.50;5093620;28;20011;-78
2021/08/14 02:51:15;;;;;;;;;;;;;;;17.47;100.00;99206.97;5093583;28;20441;-79
2021/08/14 02:53:42;;;;;;;;;;;;;;;17.18;100.00;99205.72;5092134;28;19924;-78
2021/08/14 02:56:09;;;;;;;;;;;;;;;16.83;100.00;99212.75;5054052;28;19931;-78
2021/08/14 02:58:37;;;;;;;;;;;;;;;17.35;100.00;99209.88;5088499;28;19928;-78
2021/08/14 03:01:04;;;;;;;;;;;;;;;17.34;100.00;99205.47;5092055;28;19928;-78
2021/08/14 03:03:31;;;;;;;;;;;;;;;17.46;100.00;99210.25;5093318;28;19924;-78
2021/08/14 03:05:58;;;;;;;;;;;;;;;17.41;100.00;99214.44;5093658;28;19924;-78
2021/08/14 03:08:25;;;;;;;;;;;;;;;17.25;100.00;99211.09;5095969;28;19931;-78
2021/08/14 03:10:52;;;;;;;;;;;;;;;17.34;100.00;99211.13;5096142;28;19931;-79
2021/08/14 03:13:19;;;;;;;;;;;;;;;17.25;100.00;99205.44;5078897;28;19924;-79
2021/08/14 03:15:46;;;;;;;;;;;;;;;17.24;100.00;99203.84;5095842;28;19993;-79
2021/08/14 03:18:14;;;;;;;;;;;;;;;17.22;100.00;99204.31;5078937;28;19924;-78
2021/08/14 03:20:41;;;;;;;;;;;;;;;17.44;100.00;99204.28;5096409;28;20383;-78
2021/08/14 03:23:08;;;;;;;;;;;;;;;17.64;100.00;99196.97;5096903;28;19931;-79
2021/08/14 03:25:35;;;;;;;;;;;;;;;17.69;100.00;99206.88;5095664;28;20402;-80
2021/08/14 03:28:02;;;;;;;;;;;;;;;17.56;100.00;99200.53;5095536;28;19925;-78
2021/08/14 03:30:29;;;;;;;;;;;;;;;17.71;100.00;99207.16;5076439;28;19925;-78
2021/08/14 03:32:56;;;;;;;;;;;;;;;17.57;100.00;99205.72;5095341;28;19962;-78
2021/08/14 03:35:24;;;;;;;;;;;;;;;17.38;100.00;99208.94;5096545;28;19928;-80
2021/08/14 03:37:51;;;;;;;;;;;;;;;17.40;100.00;99214.91;5076766;28;19924;-80
2021/08/14 03:40:19;;;;;;;;;;;;;;;17.55;100.00;99204.63;5087547;28;19990;-79
2021/08/14 03:42:46;;;;;;;;;;;;;;;17.43;100.00;99211.16;5078314;28;19924;-80
2021/08/14 03:45:13;;;;;;;;;;;;;;;17.27;100.00;99203.72;5075011;28;19959;-78
2021/08/14 03:47:41;;;;;;;;;;;;;;;17.11;100.00;99200.38;5075077;28;20351;-80
2021/08/14 03:50:08;;;;;;;;;;;;;;;17.14;100.00;99205.09;5078778;28;19924;-80
2021/08/14 03:52:36;;;;;;;;;;;;;;;17.45;100.00;99203.81;5094861;28;20407;-80
2021/08/14 03:55:04;;;;;;;;;;;;;;;17.52;100.00;99203.50;5096194;28;19924;-78
2021/08/14 03:57:31;;;;;;;;;;;;;;;17.46;100.00;99199.72;5095188;28;20009;-78
2021/08/14 03:59:58;;;;;;;;;;;;;;;17.48;100.00;99219.03;5080826;28;19930;-80
2021/08/14 04:02:25;;;;;;;;;;;;;;;17.50;100.00;99210.88;5095947;28;19934;-80
2021/08/14 04:04:52;;;;;;;;;;;;;;;17.51;100.00;99196.28;5078030;28;19924;-78
2021/08/14 04:07:19;;;;;;;;;;;;;;;17.46;100.00;99196.13;5057882;28;19925;-80
2021/08/14 04:09:47;;;;;;;;;;;;;;;17.56;100.00;99204.16;5090143;28;19925;-77
2021/08/14 04:12:14;;;;;;;;;;;;;;;17.60;100.00;99198.34;5095551;28;20018;-77
2021/08/14 04:14:42;;;;;;;;;;;;;;;17.67;100.00;99203.72;5095460;28;19924;-77
2021/08/14 04:17:17;;;;;;;;;;;;;;;17.76;100.00;99195.25;5094130;28;19924;-80
2021/08/14 04:19:44;;;;;;;;;;;;;;;17.37;100.00;99207.38;5095198;28;19924;-80
2021/08/14 04:22:11;;;;;;;;;;;;;;;17.50;100.00;99199.59;5063448;28;19924;-80
2021/08/14 04:24:38;;;;;;;;;;;;;;;17.65;100.00;99206.22;5095481;28;19967;-78
2021/08/14 04:27:07;;;;;;;;;;;;;;;17.71;100.00;99207.16;5093983;28;19924;-80
2021/08/14 04:29:34;;;;;;;;;;;;;;;17.55;100.00;99211.03;5094226;28;19931;-77
2021/08/14 04:32:10;;;;;;;;;;;;;;;17.45;100.00;99209.47;5093427;28;20009;-80
2021/08/14 04:34:57;;;;;;;;;;;;;;;17.55;100.00;99207.47;5079028;28;20470;-80
2021/08/14 04:37:27;;;;;;;;;;;;;;;17.34;100.00;99208.31;5095162;28;19978;-80
2021/08/14 04:39:54;;;;;;;;;;;;;;;17.38;100.00;99217.41;5076859;28;19928;-80
2021/08/14 04:42:21;;;;;;;;;;;;;;;17.35;100.00;99215.53;5076849;28;19925;-80
2021/08/14 04:44:48;;;;;;;;;;;;;;;17.57;100.00;99225.50;5095115;28;20007;-80
2021/08/14 04:47:15;;;;;;;;;;;;;;;17.49;100.00;99215.75;5076870;28;19997;-80
2021/08/14 04:49:43;;;;;;;;;;;;;;;17.37;100.00;99221.50;5095152;28;20325;-80
2021/08/14 04:52:10;;;;;;;;;;;;;;;17.20;100.00;99215.31;5076945;28;19924;-80
2021/08/14 04:54:39;;;;;;;;;;;;;;;17.33;100.00;99223.66;5093697;28;20366;-81
2021/08/14 04:57:06;;;;;;;;;;;;;;;17.16;100.00;99228.00;5093481;28;19978;-81
2021/08/14 04:59:33;;;;;;;;;;;;;;;17.27;100.00;99208.56;5092892;28;19952;-80
2021/08/14 05:02:02;;;;;;;;;;;;;;;17.29;100.00;99217.38;5093865;28;19982;-81
2021/08/14 05:04:29;;;;;;;;;;;;;;;17.53;100.00;99226.91;5092743;28;19927;-78
2021/08/14 05:06:56;;;;;;;;;;;;;;;17.65;100.00;99214.69;5076035;28;20437;-78
2021/08/14 05:09:23;;;;;;;;;;;;;;;17.77;100.00;99222.25;5092564;28;19924;-81
2021/08/14 05:11:50;;;;;;;;;;;;;;;17.86;100.00;99228.72;5093101;28;19924;-81
2021/08/14 05:14:18;;;;;;;;;;;;;;;17.65;100.00;99217.50;5072619;28;19994;-78
2021/08/14 05:16:45;;;;;;;;;;;;;;;17.48;100.00;99222.66;5073115;28;19924;-78
2021/08/14 05:19:12;;;;;;;;;;;;;;;17.37;100.00;99219.44;5092683;28;19949;-80
2021/08/14 05:21:39;;;;;;;;;;;;;;;17.46;100.00;99221.56;5091533;28;19924;-80
2021/08/14 05:24:06;;;;;;;;;;;;;;;17.62;100.00;99221.28;5081960;28;20013;-80
2021/08/14 05:26:33;;;;;;;;;;;;;;;17.34;100.00;99220.38;5073060;28;19959;-78
2021/08/14 05:29:00;;;;;;;;;;;;;;;17.38;100.00;99228.72;5079677;28;19931;-80
2021/08/14 05:31:27;;;;;;;;;;;;;;;17.39;100.00;99222.59;5076368;28;20361;-80
2021/08/14 05:34:01;;;;;;;;;;;;;;;17.30;100.00;99230.25;5062285;28;19986;-80
2021/08/14 05:36:28;;;;;;;;;;;;;;;17.53;100.00;99238.19;5076308;28;19928;-79
2021/08/14 05:38:56;;;;;;;;;;;;;;;17.51;100.00;99240.69;5072363;28;20281;-77
2021/08/14 05:41:24;;;;;;;;;;;;;;;17.54;100.00;99236.94;5092720;28;20026;-80
2021/08/14 05:43:51;;;;;;;;;;;;;;;17.58;100.00;99240.44;5092626;28;19931;-77
2021/08/14 05:46:18;;;;;;;;;;;;;;;17.64;100.00;99239.34;5092862;28;19924;-79
2021/08/14 05:48:44;;;;;;;;;;;;;;;17.80;100.00;99247.53;5092616;28;19924;-80
2021/08/14 05:51:12;;;;;;;;;;;;;;;17.63;100.00;99249.06;5055926;28;20015;-80
2021/08/14 05:53:40;;;;;;;;;;;;;;;17.86;100.00;99250.53;5085727;28;20437;-79
2021/08/14 05:56:08;;;;;;;;;;;;;;;17.61;100.00;99250.78;5092485;28;20015;-77
2021/08/14 05:58:35;;;;;;;;;;;;;;;17.98;100.00;99247.56;5093688;28;19924;-79
2021/08/14 06:01:02;;;;;;;;;;;;;;;17.99;100.00;99248.38;5093968;28;19924;-79
2021/08/14 06:03:36;;;;;;;;;;;;;;;17.92;100.00;99248.66;5093637;28;20270;-77
2021/08/14 06:06:04;;;;;;;;;;;;;;;17.66;100.00;99250.19;5093774;28;19927;-78
2021/08/14 06:08:32;;;;;;;;;;;;;;;17.49;100.00;99248.88;5092138;28;20403;-79
2021/08/14 06:10:59;;;;;;;;;;;;;;;17.85;100.00;99246.94;5075746;28;19924;-79
2021/08/14 06:13:27;;;;;;;;;;;;;;;17.79;100.00;99251.63;5093231;28;20337;-79
2021/08/14 06:15:54;;;;;;;;;;;;;;;17.55;100.00;99247.00;5092429;28;19931;-79
2021/08/14 06:18:21;;;;;;;;;;;;;;;17.83;100.00;99248.63;5074393;28;19924;-81
2021/08/14 06:20:48;;;;;;;;;;;;;;;18.04;100.00;99253.38;5081323;28;20393;-79
2021/08/14 06:23:16;;;;;;;;;;;;;;;18.12;100.00;99234.06;5075047;28;19981;-78
2021/08/14 06:25:45;;;;;;;;;;;;;;;17.98;100.00;99243.19;5080675;28;19925;-75
2021/08/14 06:28:12;;;;;;;;;;;;;;;18.41;100.00;99240.88;5092084;28;19930;-79
2021/08/14 06:30:40;;;;;;;;;;;;;;;18.49;100.00;99247.78;5093190;28;20419;-80
2021/08/14 06:33:08;;;;;;;;;;;;;;;18.48;100.00;99246.19;5030994;28;20412;-82
2021/08/14 06:35:35;;;;;;;;;;;;;;;18.29;100.00;99255.94;5090794;28;20363;-81
2021/08/14 06:38:02;;;;;;;;;;;;;;;18.21;100.00;99257.50;5092586;28;19955;-81
2021/08/14 06:40:29;;;;;;;;;;;;;;;18.33;100.00;99262.22;5075898;28;19931;-81
2021/08/14 06:42:57;;;;;;;;;;;;;;;18.05;100.00;99257.81;5096509;28;19977;-80
2021/08/14 06:45:24;;;;;;;;;;;;;;;18.17;100.00;99264.56;5082959;28;20399;-81
2021/08/14 06:47:52;;;;;;;;;;;;;;;18.26;100.00;99258.91;5079975;28;20267;-81
2021/08/14 06:50:19;;;;;;;;;;;;;;;18.32;100.00;99266.31;5096285;28;20409;-81
2021/08/14 06:52:47;;;;;;;;;;;;;;;18.25;100.00;99266.59;5082596;28;19928;-80
2021/08/14 06:55:14;;;;;;;;;;;;;;;18.35;100.00;99264.56;5096723;28;19924;-81
2021/08/14 06:57:44;;;;;;;;;;;;;;;18.38;100.00;99258.78;5079208;28;20431;-79
2021/08/14 07:00:37;;;;;;;;;;;;;;;18.43;100.00;99261.00;5095912;28;20402;-80
2021/08/14 07:03:05;;;;;;;;;;;;;;;18.53;100.00;99256.91;5081954;28;19959;-79
2021/08/14 07:05:33;;;;;;;;;;;;;;;18.30;100.00;99257.50;5096342;28;20023;-81
2021/08/14 07:08:00;;;;;;;;;;;;;;;18.62;100.00;99250.44;5059145;28;20452;-81
2021/08/14 07:10:28;;;;;;;;;;;;;;;18.62;100.00;99256.09;5083638;28;19973;-82
2021/08/14 07:12:55;;;;;;;;;;;;;;;18.61;100.00;99252.50;5079591;28;20014;-81
2021/08/14 07:15:22;;;;;;;;;;;;;;;18.67;100.00;99249.81;5094679;28;20275;-80
2021/08/14 07:17:50;;;;;;;;;;;;;;;18.89;100.00;99245.50;5097346;28;19927;-81
2021/08/14 07:20:17;;;;;;;;;;;;;;;18.65;100.00;99238.16;5077581;28;19950;-80
2021/08/14 07:22:44;;;;;;;;;;;;;;;18.85;100.00;99244.91;5088521;28;19924;-81
2021/08/14 07:25:11;;;;;;;;;;;;;;;18.71;100.00;99241.94;5067444;28;19924;-81
2021/08/14 07:27:38;;;;;;;;;;;;;;;19.00;100.00;99237.31;5088836;28;19947;-81
2021/08/14 07:30:06;;;;;;;;;;;;;;;19.12;100.00;99239.16;5096679;28;20379;-81
2021/08/14 07:32:33;;;;;;;;;;;;;;;18.87;100.00;99236.69;5067191;28;20384;-79
2021/08/14 07:35:00;;;;;;;;;;;;;;;18.73;100.00;99240.22;5077092;28;20015;-81
2021/08/14 07:37:28;;;;;;;;;;;;;;;18.96;100.00;99241.56;5079647;28;19950;-82
2021/08/14 07:39:55;;;;;;;;;;;;;;;19.21;100.00;99241.97;5074939;28;19932;-79
2021/08/14 07:42:22;;;;;;;;;;;;;;;19.10;100.00;99236.03;5088299;28;19924;-77
2021/08/14 07:44:50;;;;;;;;;;;;;;;18.93;100.00;99231.97;5089755;28;19924;-79
2021/08/14 07:47:19;;;;;;;;;;;;;;;19.22;100.00;99226.53;5072989;28;20166;-78
2021/08/14 07:49:47;;;;;;;;;;;;;;;19.36;100.00;99223.06;5090389;28;19951;-78
2021/08/14 07:52:14;;;;;;;;;;;;;;;19.36;100.00;99237.22;5092053;28;19924;-77
2021/08/14 07:54:42;;;;;;;;;;;;;;;18.91;100.00;99236.56;5092395;28;19924;-78
2021/08/14 07:57:11;;;;;;;;;;;;;;;18.90;100.00;99224.44;5093037;28;20133;-78
2021/08/14 07:59:38;;;;;;;;;;;;;;;19.33;100.00;99226.03;5091721;28;20002;-78
2021/08/14 08:02:05;;;;;;;;;;;;;;;19.57;100.00;99227.66;5061096;28;19924;-80
2021/08/14 08:04:33;;;;;;;;;;;;;;;19.55;100.00;99233.03;5095780;28;19969;-77
2021/08/14 08:07:00;;;;;;;;;;;;;;;19.35;100.00;99232.03;5074464;28;20359;-78
2021/08/14 08:09:27;;;;;;;;;;;;;;;19.68;100.00;99224.28;5074296;28;19962;-78
2021/08/14 08:11:55;;;;;;;;;;;;;;;19.54;100.00;99225.00;5077270;28;20418;-79
2021/08/14 08:14:22;;;;;;;;;;;;;;;19.53;100.00;99223.44;5096167;28;19928;-76
2021/08/14 08:16:51;;;;;;;;;;;;;;;19.52;100.00;99216.22;5073887;28;19931;-78
2021/08/14 08:19:18;;;;;;;;;;;;;;;19.08;100.00;99224.41;5085762;28;20019;-78
2021/08/14 08:21:45;;;;;;;;;;;;;;;19.57;100.00;99227.66;5094059;28;19924;-78
2021/08/14 08:24:13;;;;;;;;;;;;;;;19.58;100.00;99229.22;5075676;28;20015;-78
2021/08/14 08:26:40;;;;;;;;;;;;;;;19.13;100.00;99212.41;5089713;28;20026;-77
2021/08/14 08:29:07;;;;;;;;;;;;;;;18.84;100.00;99215.00;5093780;28;19924;-77
2021/08/14 08:31:34;;;;;;;;;;;;;;;19.06;100.00;99214.78;5094776;28;19970;-77
2021/08/14 08:34:01;;;;;;;;;;;;;;;19.11;100.00;99231.94;5077437;28;19955;-79
2021/08/14 08:36:55;;;;;;;;;;;;;;;19.15;100.00;99232.53;5095171;27;20326;-79
2021/08/14 08:39:22;;;;;;;;;;;;;;;20.04;100.00;99215.53;5088413;28;19974;-79
2021/08/14 08:41:50;;;;;;;;;;;;;;;20.75;100.00;99215.44;5089248;28;19939;-79
2021/08/14 08:44:18;;;;;;;;;;;;;;;21.04;100.00;99221.13;5089972;28;20390;-79
2021/08/14 08:46:45;;;;;;;;;;;;;;;20.45;100.00;99208.94;5088832;28;20311;-79
2021/08/14 08:49:12;;;;;;;;;;;;;;;20.68;100.00;99210.94;5088686;28;19939;-79
2021/08/14 08:51:39;;;;;;;;;;;;;;;20.50;100.00;99213.94;5088736;28;19925;-79
2021/08/14 08:54:12;;;;;;;;;;;;;;;20.59;100.00;99219.53;5088307;28;19981;-79
2021/08/14 08:56:40;;;;;;;;;;;;;;;19.60;100.00;99211.75;5088676;28;19928;-79
2021/08/14 08:59:11;;;;;;;;;;;;;;;18.99;100.00;99224.41;5089844;28;20027;-79
2021/08/14 09:01:38;;;;;;;;;;;;;;;18.71;100.00;99234.22;5088328;28;19931;-79
2021/08/14 09:04:38;;;;;;;;;;;;;;;18.71;100.00;99224.94;5122199;28;20082;-79
2021/08/14 09:07:05;;;;;;;;;;;;;;;19.14;100.00;99230.19;5076626;28;19928;-79
2021/08/14 09:09:33;;;;;;;;;;;;;;;19.29;100.00;99223.41;5105341;28;19924;-79
2021/08/14 09:12:03;;;;;;;;;;;;;;;19.46;100.00;99212.47;5075456;28;19928;-79
2021/08/14 09:14:44;;;;;;;;;;;;;;;19.28;100.00;99218.97;5068275;28;19925;-79
2021/08/14 09:17:11;;;;;;;;;;;;;;;19.32;100.00;99219.63;5074824;28;19931;-79
2021/08/14 09:19:39;;;;;;;;;;;;;;;19.16;100.00;99211.44;5068083;28;20043;-79
2021/08/14 09:22:20;;;;;;;;;;;;;;;19.33;100.00;99218.34;5120871;28;19932;-79
2021/08/14 09:24:47;;;;;;;;;;;;;;;19.69;100.00;99225.84;5089322;28;19928;-79
2021/08/14 09:27:17;;;;;;;;;;;;;;;20.01;100.00;99227.09;5105231;28;19929;-79
2021/08/14 09:29:46;;;;;;;;;;;;;;;19.49;100.00;99215.09;5067318;28;19932;-79
2021/08/14 09:32:15;;;;;;;;;;;;;;;19.82;100.00;99212.25;5087681;28;19933;-79
2021/08/14 09:34:47;;;;;;;;;;;;;;;19.17;100.00;99215.06;5087884;28;19928;-79
2021/08/14 09:37:15;;;;;;;;;;;;;;;19.22;100.00;99222.94;5087606;28;19955;-79
2021/08/14 09:39:49;;;;;;;;;;;;;;;19.20;100.00;99208.47;5067369;28;19928;-79
2021/08/14 09:42:16;;;;;;;;;;;;;;;19.87;100.00;99213.63;5081374;28;20041;-79
2021/08/14 09:44:44;;;;;;;;;;;;;;;19.73;100.00;99220.03;5077679;28;20072;-79
2021/08/14 09:47:29;;;;;;;;;;;;;;;20.03;100.00;99221.69;5079982;28;20015;-79
2021/08/14 09:49:57;;;;;;;;;;;;;;;20.05;100.00;99219.19;5073644;28;19925;-79
2021/08/14 09:52:25;;;;;;;;;;;;;;;20.17;100.00;99232.34;5073158;28;20389;-79
2021/08/14 09:54:53;;;;;;;;;;;;;;;20.34;100.00;99236.31;5073133;28;20326;-79
2021/08/14 09:57:20;;;;;;;;;;;;;;;20.50;100.00;99227.34;5074757;28;19925;-79
2021/08/14 09:59:48;;;;;;;;;;;;;;;19.76;100.00;99236.06;5074829;28;19981;-79
2021/08/14 10:02:25;;;;;;;;;;;;;;;19.95;100.00;99237.53;5073679;28;20019;-79
2021/08/14 10:04:54;;;;;;;;;;;;;;;19.79;100.00;99241.56;5057984;28;20321;-79
2021/08/14 10:07:21;;;;;;;;;;;;;;;20.05;100.00;99237.00;5073551;28;20019;-79
2021/08/14 10:09:49;;;;;;;;;;;;;;;19.94;100.00;99242.41;5074495;28;20291;-79
2021/08/14 10:12:17;;;;;;;;;;;;;;;20.20;100.00;99237.06;5074747;28;20287;-79
2021/08/14 10:14:45;;;;;;;;;;;;;;;20.65;100.00;99228.16;5074287;28;20406;-79
2021/08/14 10:17:13;;;;;;;;;;;;;;;20.73;100.00;99235.81;5090115;28;19924;-79
2021/08/14 10:19:40;;;;;;;;;;;;;;;20.73;100.00;99232.97;5073905;28;19924;-79
2021/08/14 10:22:08;;;;;;;;;;;;;;;20.68;100.00;99222.28;5072761;28;20003;-79
2021/08/14 10:24:40;;;;;;;;;;;;;;;20.80;100.00;99224.06;5106696;28;20404;-79
2021/08/14 10:27:08;;;;;;;;;;;;;;;21.00;100.00;99229.06;5074081;28;19924;-79
2021/08/14 10:29:41;;;;;;;;;;;;;;;20.64;100.00;99235.09;5106661;28;20374;-79
2021/08/14 10:32:08;;;;;;;;;;;;;;;20.44;100.00;99230.09;5042462;28;19924;-79
2021/08/14 10:34:37;;;;;;;;;;;;;;;20.39;100.00;99242.09;5073953;28;20023;-79
2021/08/14 10:40:18;;;;;;;;;;;;;;;20.60;100.00;99246.63;5069463;28;20298;-79
2021/08/14 10:42:57;;;;;;;;;;;;;;;20.56;100.00;99242.44;5061445;28;20382;-79
2021/08/14 10:45:31;;;;;;;;;;;;;;;20.50;100.00;99250.03;5073748;28;19925;-79
2021/08/14 10:48:05;;;;;;;;;;;;;;;20.79;100.00;99250.88;5051576;28;20275;-79
2021/08/14 10:50:32;;;;;;;;;;;;;;;20.75;100.00;99241.75;5056255;28;19924;-79
2021/08/14 10:53:11;;;;;;;;;;;;;;;20.34;100.00;99248.44;5070795;28;19931;-80
2021/08/14 10:55:39;;;;;;;;;;;;;;;20.51;100.00;99245.94;5072536;28;20378;-79
2021/08/14 10:58:33;;;;;;;;;;;;;;;20.71;100.00;99240.38;5105458;28;19924;-80
2021/08/14 11:01:03;;;;;;;;;;;;;;;20.67;100.00;99234.13;5069558;28;20433;-79
2021/08/14 11:03:32;;;;;;;;;;;;;;;20.42;100.00;99234.66;5088593;28;20000;-79
2021/08/14 11:06:18;;;;;;;;;;;;;;;20.28;100.00;99243.94;5072649;28;20011;-79
2021/08/14 11:08:45;;;;;;;;;;;;;;;20.22;100.00;99231.69;5052707;28;20300;-80
2021/08/14 11:11:45;;;;;;;;;;;;;;;20.62;100.00;99246.16;5067234;28;20481;-79
2021/08/14 11:14:12;;;;;;;;;;;;;;;20.75;100.00;99243.84;5015129;28;20273;-79
2021/08/14 11:16:57;;;;;;;;;;;;;;;20.76;100.00;99245.41;5030979;28;19969;-79
2021/08/14 11:19:43;;;;;;;;;;;;;;;20.88;100.00;99252.84;5042223;28;20007;-80
2021/08/14 11:22:20;;;;;;;;;;;;;;;20.80;100.00;99251.66;5031116;28;19932;-80
2021/08/14 11:24:47;;;;;;;;;;;;;;;20.22;100.00;99251.56;5027391;28;20392;-80
2021/08/14 11:27:22;;;;;;;;;;;;;;;20.02;100.00;99259.84;4998509;28;20372;-79
2021/08/14 11:29:50;;;;;;;;;;;;;;;20.21;100.00;99262.09;5060342;28;19924;-79
2021/08/14 11:32:17;;;;;;;;;;;;;;;20.31;100.00;99248.63;5014757;28;20126;-79
2021/08/14 11:34:44;;;;;;;;;;;;;;;20.38;100.00;99253.94;5025071;28;20527;-79
2021/08/14 11:37:15;;;;;;;;;;;;;;;20.68;100.00;99252.72;5033851;28;20023;-79
2021/08/14 11:39:42;;;;;;;;;;;;;;;20.38;100.00;99254.72;5050399;28;20340;-80
2021/08/14 11:42:12;;;;;;;;;;;;;;;20.95;100.00;99252.47;5019874;28;19925;-79
2021/08/14 11:44:40;;;;;;;;;;;;;;;21.03;100.00;99247.97;5025037;28;19932;-79
2021/08/14 11:47:09;;;;;;;;;;;;;;;21.22;100.00;99238.75;5044405;28;19936;-80
2021/08/14 11:49:51;;;;;;;;;;;;;;;20.77;100.00;99244.13;5068131;28;19971;-80
2021/08/14 11:52:22;;;;;;;;;;;;;;;21.51;100.00;99248.53;5073006;28;19929;-80
2021/08/14 11:54:56;;;;;;;;;;;;;;;20.97;100.00;99256.41;5071495;28;19967;-80
2021/08/14 11:57:42;;;;;;;;;;;;;;;20.97;100.00;99247.09;5071624;28;19931;-79
2021/08/14 12:00:21;;;;;;;;;;;;;;;20.81;100.00;99253.25;5072843;28;20321;-79
2021/08/14 12:03:01;;;;;;;;;;;;;;;20.83;100.00;99262.84;5071977;28;19928;-80
2021/08/14 12:05:29;;;;;;;;;;;;;;;20.71;100.00;99255.38;5071430;28;20015;-79
2021/08/14 12:07:57;;;;;;;;;;;;;;;20.84;100.00;99255.09;5076870;28;19932;-79
2021/08/14 12:10:25;;;;;;;;;;;;;;;21.06;100.00;99247.00;5072188;28;20248;-80
2021/08/14 12:12:59;;;;;;;;;;;;;;;20.74;100.00;99237.38;5071215;28;20017;-79
2021/08/14 12:15:43;;;;;;;;;;;;;;;21.13;100.00;99249.44;5104891;28;19924;-79
2021/08/14 12:18:10;;;;;;;;;;;;;;;21.74;100.00;99234.16;5088121;28;19924;-80
2021/08/14 12:20:39;;;;;;;;;;;;;;;21.61;100.00;99225.16;5072702;28;20011;-80
2021/08/14 12:23:23;;;;;;;;;;;;;;;21.35;100.00;99229.94;5071437;28;19931;-79
2021/08/14 12:25:51;;;;;;;;;;;;;;;21.53;100.00;99232.53;5060508;28;19924;-80
2021/08/14 12:28:18;;;;;;;;;;;;;;;21.60;100.00;99223.59;5072892;28;20007;-80
2021/08/14 12:30:46;;;;;;;;;;;;;;;21.58;100.00;99214.78;5054279;28;19924;-80
2021/08/14 12:33:25;;;;;;;;;;;;;;;21.39;100.00;99213.44;5072458;28;19930;-80
2021/08/14 12:36:01;;;;;;;;;;;;;;;21.38;100.00;99218.38;5072449;28;20367;-80
2021/08/14 12:38:29;;;;;;;;;;;;;;;20.97;100.00;99235.75;5071466;28;19931;-79
2021/08/14 12:40:57;;;;;;;;;;;;;;;21.26;100.00;99230.03;5072602;28;19925;-80
2021/08/14 12:43:25;;;;;;;;;;;;;;;21.40;100.00;99229.25;5072310;28;20015;-79
2021/08/14 12:45:52;;;;;;;;;;;;;;;21.30;100.00;99227.78;5072053;28;19931;-80
2021/08/14 12:48:19;;;;;;;;;;;;;;;21.35;100.00;99235.63;5072489;28;20391;-79